Time;durP1;ratioP1;P1;durP2;ratioP2;P2;SDS_P1;SDS_P2;PMS_P1;PMS_P2;Temp;Humidity;BMP_temperature;BMP_pressure;BME280_temperature;BME280_humidity;BME280_pressure;Samples;Min_cycle;Max_cycle;Signal;HPM_P1;HPM_P2
2023/03/21 00:01:39;;;;;;;6.07;3.60;;;10.60;99.90;;;;;;10317680;28;20234;-65
2023/03/21 00:06:40;;;;;;;6.73;3.03;;;10.60;99.90;;;;;;10316098;28;20292;-66
2023/03/21 00:11:40;;;;;;;6.30;3.10;;;10.60;99.90;;;;;;10332966;28;20320;-66
2023/03/21 00:16:49;;;;;;;6.30;2.90;;;10.60;99.90;;;;;;10306954;28;20670;-68
2023/03/21 00:21:51;;;;;;;7.40;2.87;;;10.60;99.90;;;;;;10300305;28;20222;-67
2023/03/21 00:26:51;;;;;;;9.70;3.10;;;10.50;99.90;;;;;;10314741;28;20226;-66
2023/03/21 00:31:52;;;;;;;6.23;2.63;;;10.60;99.90;;;;;;10320598;28;20284;-65
2023/03/21 00:36:52;;;;;;;5.17;2.60;;;10.50;99.90;;;;;;10307557;28;20237;-66
2023/03/21 00:41:53;;;;;;;6.30;2.90;;;10.50;99.90;;;;;;10312700;28;20725;-66
2023/03/21 00:46:54;;;;;;;5.50;2.63;;;10.40;99.90;;;;;;10308075;28;20956;-65
2023/03/21 00:51:54;;;;;;;7.37;3.17;;;10.40;99.90;;;;;;10312070;28;20229;-66
2023/03/21 00:56:55;;;;;;;5.73;3.00;;;10.40;99.90;;;;;;10306769;28;20262;-65
2023/03/21 01:01:59;;;;;;;6.77;3.10;;;10.30;99.90;;;;;;10328764;28;20296;-65
2023/03/21 01:06:59;;;;;;;6.83;3.03;;;10.30;99.90;;;;;;10320381;28;20226;-65
2023/03/21 01:12:00;;;;;;;5.60;2.90;;;10.30;99.90;;;;;;10312670;28;20637;-64
2023/03/21 01:17:00;;;;;;;6.67;3.00;;;10.30;99.90;;;;;;10307651;28;20242;-66
2023/03/21 01:22:01;;;;;;;8.73;3.13;;;10.20;99.90;;;;;;10312654;28;20226;-65
2023/03/21 01:27:02;;;;;;;4.03;2.63;;;10.10;99.90;;;;;;10326087;28;20306;-65
2023/03/21 01:32:05;;;;;;;7.00;4.13;;;10.10;99.90;;;;;;10312083;28;20237;-65
2023/03/21 01:37:06;;;;;;;5.27;2.93;;;10.00;99.90;;;;;;10307668;28;20357;-65
2023/03/21 01:42:12;;;;;;;5.70;2.90;;;10.00;99.90;;;;;;10309130;28;20230;-65
2023/03/21 01:47:12;;;;;;;3.40;2.70;;;9.80;99.90;;;;;;10314509;28;20233;-65
2023/03/21 01:52:18;;;;;;;6.50;3.03;;;9.70;99.90;;;;;;10321879;28;20210;-66
2023/03/21 01:57:31;;;;;;;4.30;2.77;;;9.50;99.90;;;;;;10303859;28;20222;-68
2023/03/21 02:02:32;;;;;;;5.13;2.93;;;9.40;99.90;;;;;;10304931;28;20237;-67
2023/03/21 02:07:35;;;;;;;4.57;3.00;;;9.30;99.90;;;;;;10322274;28;20228;-66
2023/03/21 02:12:37;;;;;;;6.37;2.93;;;9.20;99.90;;;;;;10311248;28;20260;-67
2023/03/21 02:17:46;;;;;;;6.30;3.20;;;9.10;99.90;;;;;;10310252;28;20221;-66
2023/03/21 02:23:03;;;;;;;6.73;2.90;;;9.00;99.90;;;;;;10303365;28;20234;-64
2023/03/21 02:28:24;;;;;;;5.40;3.13;;;8.90;99.90;;;;;;10307548;28;20226;-66
2023/03/21 02:33:49;;;;;;;5.77;3.60;;;8.90;99.90;;;;;;10311478;28;20226;-66
2023/03/21 02:39:27;;;;;;;6.20;3.07;;;8.80;99.90;;;;;;10302922;28;20312;-67
2023/03/21 02:44:45;;;;;;;6.27;3.30;;;8.80;99.90;;;;;;10310882;28;20237;-67
2023/03/21 02:49:57;;;;;;;7.23;3.30;;;8.70;99.90;;;;;;10308403;28;20217;-67
2023/03/21 02:54:59;;;;;;;6.83;3.40;;;8.70;99.90;;;;;;10307309;28;20242;-66
2023/03/21 03:00:02;;;;;;;5.23;3.40;;;8.70;99.90;;;;;;10310605;28;20329;-68
2023/03/21 03:05:16;;;;;;;6.03;3.43;;;8.70;99.90;;;;;;10306842;28;20237;-68
2023/03/21 03:10:23;;;;;;;4.93;3.30;;;8.60;99.90;;;;;;10301684;28;20222;-65
2023/03/21 03:15:46;;;;;;;7.43;3.47;;;8.60;99.90;;;;;;10306551;28;20226;-66
2023/03/21 03:21:16;;;;;;;4.50;3.80;;;8.60;99.90;;;;;;10302120;28;20221;-66
2023/03/21 03:26:22;;;;;;;6.00;3.77;;;8.60;99.90;;;;;;10321013;28;20242;-66
2023/03/21 03:31:31;;;;;;;6.97;4.30;;;8.60;99.90;;;;;;10316847;28;20245;-66
2023/03/21 03:36:38;;;;;;;5.03;3.70;;;8.60;99.90;;;;;;10309746;28;20230;-67
2023/03/21 03:41:49;;;;;;;6.13;3.53;;;8.50;99.90;;;;;;10316017;28;20237;-67
2023/03/21 03:47:06;;;;;;;6.00;3.77;;;8.50;99.90;;;;;;10309275;28;20218;-66
2023/03/21 03:52:28;;;;;;;5.30;3.70;;;8.40;99.90;;;;;;10317847;28;20610;-66
2023/03/21 03:57:29;;;;;;;10.73;4.40;;;8.40;99.90;;;;;;10318811;28;20212;-65
2023/03/21 04:02:33;;;;;;;6.47;4.00;;;8.40;99.90;;;;;;10316248;28;20226;-65
2023/03/21 04:07:34;;;;;;;5.97;4.20;;;8.60;99.90;;;;;;10315832;28;20283;-66
2023/03/21 04:12:34;;;;;;;6.97;3.47;;;8.70;99.90;;;;;;10314769;28;20218;-66
2023/03/21 04:17:37;;;;;;;5.10;3.50;;;8.90;99.90;;;;;;10321465;28;20229;-67
2023/03/21 04:22:37;;;;;;;6.43;3.73;;;9.00;99.90;;;;;;10316072;28;20803;-65
2023/03/21 04:27:38;;;;;;;8.93;4.37;;;9.10;99.90;;;;;;10323069;28;20228;-66
2023/03/21 04:32:39;;;;;;;6.67;4.00;;;9.20;99.90;;;;;;10313165;28;20277;-65
2023/03/21 04:37:42;;;;;;;6.17;3.57;;;9.10;99.90;;;;;;10320400;28;20229;-65
2023/03/21 04:42:43;;;;;;;6.80;3.47;;;9.00;99.90;;;;;;10321168;28;20233;-66
2023/03/21 04:47:44;;;;;;;6.63;3.37;;;8.80;99.90;;;;;;10305202;28;20613;-65
2023/03/21 04:52:45;;;;;;;6.90;4.10;;;8.70;99.90;;;;;;10323301;28;20239;-65
2023/03/21 04:57:46;;;;;;;8.50;3.70;;;8.50;99.90;;;;;;10312242;28;20218;-65
2023/03/21 05:02:46;;;;;;;6.40;4.00;;;8.40;99.90;;;;;;10304964;28;20234;-65
2023/03/21 05:07:47;;;;;;;5.50;3.73;;;8.50;99.90;;;;;;10312193;28;20233;-65
2023/03/21 05:12:47;;;;;;;7.33;3.80;;;8.60;99.90;;;;;;10308019;28;20917;-67
2023/03/21 05:17:48;;;;;;;7.43;4.30;;;8.80;99.90;;;;;;10321317;28;20689;-67
2023/03/21 05:22:50;;;;;;;7.20;3.73;;;8.90;99.90;;;;;;10311774;28;20308;-68
2023/03/21 05:27:53;;;;;;;8.37;4.60;;;9.00;99.90;;;;;;10318484;28;20218;-67
2023/03/21 05:32:53;;;;;;;6.40;4.20;;;8.90;99.90;;;;;;10305826;28;20697;-66
2023/03/21 05:37:54;;;;;;;9.63;4.13;;;8.90;99.90;;;;;;10310106;28;20272;-67
2023/03/21 05:42:55;;;;;;;7.27;4.33;;;8.80;99.90;;;;;;10317087;28;20760;-66
2023/03/21 05:47:58;;;;;;;8.73;4.43;;;8.80;99.90;;;;;;10308981;28;20299;-68
2023/03/21 05:52:59;;;;;;;7.77;4.20;;;8.80;99.90;;;;;;10305626;28;20232;-69
2023/03/21 05:57:59;;;;;;;6.93;4.27;;;8.90;99.90;;;;;;10311731;28;20569;-68
2023/03/21 06:03:00;;;;;;;7.50;3.90;;;9.00;99.90;;;;;;10313299;28;20596;-68
2023/03/21 06:08:01;;;;;;;7.47;5.10;;;9.20;99.90;;;;;;10308334;28;20962;-69
2023/03/21 06:13:01;;;;;;;7.67;4.27;;;9.20;99.90;;;;;;10304765;28;20230;-69
2023/03/21 06:18:02;;;;;;;9.07;4.37;;;9.30;99.90;;;;;;10306325;28;20280;-67
2023/03/21 06:23:03;;;;;;;9.33;4.63;;;9.40;99.90;;;;;;10310307;28;20459;-68
2023/03/21 06:28:03;;;;;;;11.27;4.33;;;9.60;99.90;;;;;;10315623;28;20771;-69
2023/03/21 06:33:04;;;;;;;7.37;4.40;;;9.90;99.90;;;;;;10310175;28;20218;-70
2023/03/21 06:38:04;;;;;;;12.73;4.33;;;10.30;99.90;;;;;;10309166;28;20218;-69
2023/03/21 06:43:05;;;;;;;8.37;4.37;;;10.80;99.90;;;;;;10312497;28;20206;-69
2023/03/21 06:48:06;;;;;;;7.07;4.07;;;11.30;99.90;;;;;;10309450;28;20218;-69
2023/03/21 06:53:09;;;;;;;7.57;3.97;;;11.80;99.90;;;;;;10309126;28;20226;-69
2023/03/21 06:58:10;;;;;;;9.20;4.67;;;12.20;99.90;;;;;;10319950;28;20240;-68
2023/03/21 07:03:11;;;;;;;5.30;3.83;;;12.20;99.90;;;;;;10320294;28;20292;-69
2023/03/21 07:08:13;;;;;;;8.97;4.10;;;12.20;99.90;;;;;;10319284;28;20575;-69
2023/03/21 07:13:14;;;;;;;4.43;3.30;;;12.70;99.90;;;;;;10323013;28;20321;-69
2023/03/21 07:18:14;;;;;;;4.67;3.57;;;13.60;99.90;;;;;;10325996;28;20296;-68
2023/03/21 07:23:20;;;;;;;6.03;3.80;;;13.80;99.90;;;;;;10327937;28;20214;-69
2023/03/21 07:28:21;;;;;;;10.77;4.73;;;13.60;99.90;;;;;;10324266;28;20214;-70
2023/03/21 07:33:23;;;;;;;6.73;4.20;;;13.40;99.90;;;;;;10319028;28;20642;-70
2023/03/21 07:38:25;;;;;;;6.27;3.83;;;13.40;99.90;;;;;;10332277;28;20210;-69
2023/03/21 07:43:25;;;;;;;8.30;3.90;;;13.50;99.90;;;;;;10317916;28;20775;-70
2023/03/21 07:48:27;;;;;;;6.43;4.00;;;13.90;99.90;;;;;;10319649;28;20285;-68
2023/03/21 07:53:28;;;;;;;7.03;3.93;;;14.60;99.90;;;;;;10329728;28;20222;-68
2023/03/21 07:58:28;;;;;;;7.67;3.37;;;16.80;99.90;;;;;;10321106;28;20218;-69
2023/03/21 08:03:31;;;;;;;5.90;3.50;;;18.80;97.30;;;;;;10321140;28;20265;-70
2023/03/21 08:08:32;;;;;;;8.57;3.40;;;19.80;91.70;;;;;;10318438;28;20316;-68
2023/03/21 08:13:32;;;;;;;6.73;4.30;;;20.60;85.60;;;;;;10321005;28;20313;-69
2023/03/21 08:18:33;;;;;;;6.90;3.80;;;21.50;77.80;;;;;;10324654;28;20241;-68
2023/03/21 08:23:35;;;;;;;5.93;3.67;;;22.30;72.30;;;;;;10325198;28;20885;-67
2023/03/21 08:28:38;;;;;;;8.47;3.30;;;24.50;63.40;;;;;;10327256;28;20239;-68
2023/03/21 08:33:38;;;;;;;5.20;3.50;;;26.50;52.40;;;;;;10323002;28;20595;-68
2023/03/21 08:38:39;;;;;;;5.63;3.00;;;26.10;51.50;;;;;;10326125;28;20232;-68
2023/03/21 08:43:40;;;;;;;7.40;3.23;;;26.20;50.70;;;;;;10322356;28;20221;-69
2023/03/21 08:48:41;;;;;;;4.60;3.00;;;26.90;49.00;;;;;;10325586;28;20242;-67
2023/03/21 08:53:42;;;;;;;8.10;3.17;;;26.40;47.70;;;;;;10329297;28;20230;-69
2023/03/21 08:58:43;;;;;;;9.47;3.50;;;24.80;48.60;;;;;;10319337;28;20948;-68
2023/03/21 09:03:44;;;;;;;5.13;3.17;;;23.20;52.50;;;;;;10326169;28;20228;-68
2023/03/21 09:08:45;;;;;;;5.70;3.30;;;21.80;54.60;;;;;;10325503;28;20221;-69
2023/03/21 09:13:45;;;;;;;5.87;3.13;;;20.90;58.30;;;;;;10328130;28;20224;-67
2023/03/21 09:18:48;;;;;;;5.30;2.60;;;20.00;61.80;;;;;;10323331;28;20222;-69
2023/03/21 09:23:51;;;;;;;5.30;2.70;;;19.60;60.40;;;;;;10324090;28;20313;-68
2023/03/21 09:28:53;;;;;;;5.73;3.07;;;19.40;61.20;;;;;;10325325;28;20584;-69
2023/03/21 09:33:56;;;;;;;6.83;3.30;;;19.10;64.30;;;;;;10323729;28;21850;-69
2023/03/21 09:38:57;;;;;;;7.07;3.60;;;18.90;65.00;;;;;;10324643;28;20248;-69
2023/03/21 09:44:07;;;;;;;5.67;2.93;;;18.90;65.50;;;;;;10322775;28;20897;-68
2023/03/21 09:49:21;;;;;;;4.13;2.20;;;18.60;66.80;;;;;;10325686;28;20240;-68
2023/03/21 09:54:26;;;;;;;5.47;2.67;;;18.10;65.70;;;;;;10326109;28;20646;-68
2023/03/21 09:59:36;;;;;;;4.87;2.60;;;18.00;67.40;;;;;;10327901;28;20257;-68
2023/03/21 10:04:37;;;;;;;6.67;4.00;;;18.10;66.60;;;;;;10319572;28;20229;-68
2023/03/21 10:09:40;;;;;;;9.30;3.20;;;17.90;67.70;;;;;;10322208;28;20235;-69
2023/03/21 10:14:49;;;;;;;9.40;3.40;;;17.90;69.40;;;;;;10323820;28;20233;-68
2023/03/21 10:19:57;;;;;;;7.20;3.30;;;18.10;68.90;;;;;;10322277;28;20704;-67
2023/03/21 10:24:58;;;;;;;10.33;3.70;;;18.30;69.00;;;;;;10319233;28;20228;-69
2023/03/21 10:29:59;;;;;;;10.50;3.53;;;18.20;69.70;;;;;;10320048;28;20559;-70
2023/03/21 10:35:03;;;;;;;5.47;2.87;;;17.90;71.40;;;;;;10321256;28;20611;-69
2023/03/21 10:40:06;;;;;;;10.57;2.80;;;17.70;71.30;;;;;;10332664;28;20651;-70
2023/03/21 10:45:15;;;;;;;6.23;2.60;;;17.70;71.00;;;;;;10322453;28;20244;-70
2023/03/21 10:50:25;;;;;;;6.23;2.50;;;17.70;72.80;;;;;;10307822;28;20739;-69
2023/03/21 10:55:30;;;;;;;7.77;3.00;;;17.70;73.10;;;;;;10324293;28;20239;-68
2023/03/21 11:00:36;;;;;;;6.97;3.00;;;17.50;77.20;;;;;;10323358;28;20240;-70
2023/03/21 11:05:40;;;;;;;4.07;2.20;;;17.00;78.50;;;;;;10333801;28;20287;-67
2023/03/21 11:11:01;;;;;;;6.27;2.93;;;16.80;80.90;;;;;;10315907;28;20241;-68
2023/03/21 11:16:09;;;;;;;7.53;2.97;;;16.70;82.90;;;;;;10310606;28;20236;-68
2023/03/21 11:21:12;;;;;;;7.00;2.90;;;16.50;85.30;;;;;;10321898;28;20227;-68
2023/03/21 11:26:35;;;;;;;5.80;3.10;;;16.30;89.90;;;;;;10314936;28;20224;-68
2023/03/21 11:31:40;;;;;;;6.43;3.00;;;16.20;90.00;;;;;;10321939;28;20232;-68
2023/03/21 11:36:40;;;;;;;6.63;3.10;;;15.90;90.90;;;;;;10322452;28;20232;-67
2023/03/21 11:41:46;;;;;;;8.63;3.73;;;15.80;92.50;;;;;;10322499;28;20230;-68
2023/03/21 11:46:46;;;;;;;11.37;4.27;;;15.80;94.10;;;;;;10323263;28;20222;-68
2023/03/21 11:51:57;;;;;;;6.27;3.73;;;15.80;95.60;;;;;;10331112;28;20234;-68
2023/03/21 11:57:01;;;;;;;5.97;3.67;;;15.80;97.40;;;;;;10330154;28;20233;-68
2023/03/21 12:02:23;;;;;;;6.20;3.50;;;15.90;98.70;;;;;;10329094;28;20803;-69
2023/03/21 12:08:05;;;;;;;7.80;4.07;;;16.00;99.90;;;;;;10329511;28;20222;-69
2023/03/21 12:13:37;;;;;;;8.30;3.80;;;16.20;99.90;;;;;;10358323;28;20288;-67
2023/03/21 12:18:48;;;;;;;6.60;4.10;;;16.40;99.90;;;;;;10327707;28;20224;-69
2023/03/21 12:24:04;;;;;;;5.53;2.70;;;16.50;99.90;;;;;;10339316;28;20223;-69
2023/03/21 12:29:17;;;;;;;6.67;3.00;;;16.40;98.80;;;;;;10331963;28;20726;-67
2023/03/21 12:34:26;;;;;;;5.40;2.80;;;16.50;98.20;;;;;;10328331;28;20259;-67
2023/03/21 12:39:34;;;;;;;5.50;3.33;;;16.50;96.40;;;;;;10328061;28;20233;-68
2023/03/21 12:44:55;;;;;;;7.87;3.20;;;16.60;96.50;;;;;;10325816;28;20251;-70
2023/03/21 12:50:17;;;;;;;3.63;2.60;;;16.70;95.80;;;;;;10318897;28;20226;-68
2023/03/21 12:55:26;;;;;;;7.47;3.40;;;16.70;95.20;;;;;;10325305;28;20229;-67
2023/03/21 13:00:35;;;;;;;6.53;3.70;;;16.80;94.60;;;;;;10326114;28;20266;-69
2023/03/21 13:05:51;;;;;;;5.77;3.93;;;16.70;94.50;;;;;;10327730;28;20229;-67
2023/03/21 13:10:54;;;;;;;7.87;4.40;;;16.20;95.10;;;;;;10320896;28;20222;-67
2023/03/21 13:15:57;;;;;;;8.90;4.60;;;15.70;97.30;;;;;;10327819;28;20310;-70
2023/03/21 13:21:11;;;;;;;8.97;4.70;;;15.50;97.80;;;;;;10328241;28;20277;-67
2023/03/21 13:26:12;;;;;;;8.37;4.60;;;15.50;98.20;;;;;;10325682;28;20320;-69
2023/03/21 13:31:16;;;;;;;7.17;4.40;;;15.30;99.20;;;;;;10326911;28;20226;-67
2023/03/21 13:36:34;;;;;;;10.60;5.03;;;15.10;99.90;;;;;;10326658;28;20226;-68
2023/03/21 13:41:37;;;;;;;6.43;4.80;;;15.10;99.90;;;;;;10326648;28;20305;-68
2023/03/21 13:46:58;;;;;;;8.07;4.80;;;15.10;99.90;;;;;;10325428;28;20227;-68
2023/03/21 13:52:01;;;;;;;8.43;4.70;;;15.10;99.90;;;;;;10304529;28;20238;-68
2023/03/21 13:57:05;;;;;;;10.87;4.70;;;15.30;99.90;;;;;;10326621;28;20264;-68
2023/03/21 14:02:31;;;;;;;10.93;4.73;;;15.30;99.90;;;;;;10324312;28;20687;-68
2023/03/21 14:07:38;;;;;;;6.90;4.17;;;15.10;99.90;;;;;;10314529;28;20222;-70
2023/03/21 14:12:41;;;;;;;7.53;5.20;;;15.10;99.90;;;;;;10321508;28;20222;-67
2023/03/21 14:17:55;;;;;;;7.60;5.07;;;15.00;99.90;;;;;;10314559;28;20298;-68
2023/03/21 14:22:56;;;;;;;8.93;5.40;;;15.00;99.90;;;;;;10317873;28;20282;-67
2023/03/21 14:28:00;;;;;;;9.97;5.10;;;15.00;99.90;;;;;;10324559;28;20683;-69
2023/03/21 14:33:14;;;;;;;7.87;5.27;;;15.00;99.90;;;;;;10317451;28;20242;-69
2023/03/21 14:38:25;;;;;;;8.00;5.73;;;14.80;99.90;;;;;;10322678;28;20214;-68
2023/03/21 14:43:32;;;;;;;7.97;5.40;;;14.70;99.90;;;;;;10325741;28;20218;-67
2023/03/21 14:48:34;;;;;;;13.90;5.73;;;14.40;99.90;;;;;;10324160;28;20230;-69
2023/03/21 14:53:37;;;;;;;9.80;6.13;;;14.20;99.90;;;;;;10324668;28;20245;-69
2023/03/21 14:58:40;;;;;;;9.97;5.70;;;14.10;99.90;;;;;;10324342;28;20262;-67
2023/03/21 15:03:43;;;;;;;8.97;6.30;;;14.30;99.90;;;;;;10323195;28;20275;-68
2023/03/21 15:08:59;;;;;;;7.50;5.87;;;14.20;99.90;;;;;;10320844;28;20221;-68
2023/03/21 15:14:05;;;;;;;7.27;4.77;;;14.10;99.90;;;;;;10317729;28;20811;-70
2023/03/21 15:19:13;;;;;;;7.07;5.70;;;14.00;99.90;;;;;;10320406;28;20244;-68
2023/03/21 15:24:21;;;;;;;9.50;6.00;;;14.10;99.90;;;;;;10329737;28;20293;-69
2023/03/21 15:29:23;;;;;;;7.13;5.20;;;14.20;99.90;;;;;;10331291;28;20239;-68
2023/03/21 15:34:28;;;;;;;7.60;4.90;;;14.40;99.90;;;;;;10331148;28;20488;-68
2023/03/21 15:39:29;;;;;;;9.30;5.60;;;14.40;99.90;;;;;;10329196;28;20733;-67
2023/03/21 15:44:30;;;;;;;7.40;5.00;;;14.40;99.90;;;;;;10331027;28;20225;-67
2023/03/21 15:49:33;;;;;;;8.47;5.50;;;14.10;99.90;;;;;;10336726;28;20279;-69
2023/03/21 15:54:40;;;;;;;8.40;5.63;;;14.00;99.90;;;;;;10329977;28;20219;-68
2023/03/21 15:59:42;;;;;;;9.73;5.80;;;13.70;99.90;;;;;;10326150;28;20249;-69
2023/03/21 16:04:55;;;;;;;6.50;5.23;;;13.40;99.90;;;;;;10329460;28;20222;-67
2023/03/21 16:10:03;;;;;;;9.67;4.67;;;13.10;99.90;;;;;;10327983;28;20766;-67
2023/03/21 16:15:04;;;;;;;8.87;5.60;;;13.30;99.90;;;;;;10325764;28;20230;-67
2023/03/21 16:20:16;;;;;;;7.23;4.83;;;13.50;99.90;;;;;;10328932;28;20306;-69
2023/03/21 16:25:20;;;;;;;6.83;4.83;;;13.70;99.90;;;;;;10326089;28;20205;-68
2023/03/21 16:30:22;;;;;;;8.73;4.87;;;13.70;99.90;;;;;;10327785;28;20237;-68
2023/03/21 16:35:24;;;;;;;6.23;4.77;;;13.70;99.90;;;;;;10326365;28;20202;-68
2023/03/21 16:40:35;;;;;;;6.87;4.80;;;13.70;99.90;;;;;;10329749;28;20275;-67
2023/03/21 16:45:36;;;;;;;6.67;5.03;;;13.60;99.90;;;;;;10330121;28;20226;-68
2023/03/21 16:50:45;;;;;;;9.57;5.73;;;13.50;99.90;;;;;;10321595;28;20220;-69
2023/03/21 16:55:45;;;;;;;10.10;6.00;;;13.40;99.90;;;;;;10320477;28;20714;-69
2023/03/21 17:00:46;;;;;;;8.40;5.77;;;13.30;99.90;;;;;;10312576;28;20315;-68
2023/03/21 17:05:47;;;;;;;7.87;5.97;;;13.30;99.90;;;;;;10327043;28;20233;-67
2023/03/21 17:10:47;;;;;;;6.23;4.80;;;13.20;99.90;;;;;;10331875;28;20602;-68
2023/03/21 17:15:48;;;;;;;9.67;5.93;;;13.20;99.90;;;;;;10324701;28;20226;-68
2023/03/21 17:20:49;;;;;;;6.67;5.50;;;13.10;99.90;;;;;;10328377;28;20230;-67
2023/03/21 17:25:49;;;;;;;9.43;5.90;;;13.00;99.90;;;;;;10308861;28;20222;-68
2023/03/21 17:30:50;;;;;;;9.63;6.43;;;12.90;99.90;;;;;;10321724;28;20766;-69
2023/03/21 17:35:50;;;;;;;7.10;5.90;;;12.80;99.90;;;;;;10321062;28;20316;-68
2023/03/21 17:40:51;;;;;;;11.93;7.70;;;12.60;99.90;;;;;;10319643;28;20233;-68
2023/03/21 17:45:52;;;;;;;11.03;6.90;;;12.50;99.90;;;;;;10324145;28;20972;-67
2023/03/21 17:50:52;;;;;;;8.80;6.30;;;12.40;99.90;;;;;;10320794;28;20218;-68
2023/03/21 17:55:54;;;;;;;9.30;6.20;;;12.40;99.90;;;;;;10326819;28;20616;-70
2023/03/21 18:00:55;;;;;;;10.63;6.80;;;12.30;99.90;;;;;;10326632;28;20820;-68
2023/03/21 18:05:56;;;;;;;6.70;6.00;;;12.30;99.90;;;;;;10325210;28;20353;-68
2023/03/21 18:10:57;;;;;;;9.23;6.47;;;12.30;99.90;;;;;;10313371;28;20249;-68
2023/03/21 18:15:57;;;;;;;8.77;6.73;;;12.20;99.90;;;;;;10326265;28;20230;-69
2023/03/21 18:20:58;;;;;;;9.27;7.77;;;12.20;99.90;;;;;;10325565;28;20703;-70
2023/03/21 18:25:58;;;;;;;8.97;7.17;;;12.10;99.90;;;;;;10318848;28;20765;-69
2023/03/21 18:31:00;;;;;;;10.30;7.07;;;11.90;99.90;;;;;;10324425;28;20222;-69
2023/03/21 18:36:01;;;;;;;9.80;7.13;;;11.70;99.90;;;;;;10323540;28;20313;-70
2023/03/21 18:41:02;;;;;;;9.20;7.43;;;11.60;99.90;;;;;;10311360;28;20313;-68
2023/03/21 18:46:03;;;;;;;9.40;7.67;;;11.40;99.90;;;;;;10313442;28;20228;-69
2023/03/21 18:51:04;;;;;;;10.00;7.37;;;11.30;99.90;;;;;;10327347;28;20232;-70
2023/03/21 18:56:05;;;;;;;11.97;8.10;;;11.20;99.90;;;;;;10310537;28;20236;-71
2023/03/21 19:01:06;;;;;;;10.33;8.27;;;11.20;99.90;;;;;;10325081;28;20821;-70
2023/03/21 19:06:10;;;;;;;9.30;7.20;;;11.10;99.90;;;;;;10320153;28;20233;-71
2023/03/21 19:11:11;;;;;;;10.53;7.57;;;11.10;99.90;;;;;;10319466;28;20226;-70
2023/03/21 19:16:12;;;;;;;9.03;8.13;;;11.10;99.90;;;;;;10328715;28;20592;-70
2023/03/21 19:21:12;;;;;;;11.17;8.40;;;11.00;99.90;;;;;;10319936;28;20252;-69
2023/03/21 19:26:13;;;;;;;11.93;8.40;;;10.90;99.90;;;;;;10322642;28;20222;-68
2023/03/21 19:31:13;;;;;;;10.53;8.10;;;10.90;99.90;;;;;;10323490;28;20218;-69
2023/03/21 19:36:14;;;;;;;8.43;7.60;;;10.80;99.90;;;;;;10311771;28;20230;-68
2023/03/21 19:41:15;;;;;;;10.47;8.07;;;10.80;99.90;;;;;;10320154;28;20832;-69
2023/03/21 19:46:17;;;;;;;9.23;8.13;;;10.80;99.90;;;;;;10322228;28;20222;-71
2023/03/21 19:51:17;;;;;;;13.10;9.60;;;10.90;99.90;;;;;;10318190;28;20698;-70
2023/03/21 19:56:18;;;;;;;14.53;9.53;;;10.90;99.90;;;;;;10324563;28;20317;-69
2023/03/21 20:01:19;;;;;;;14.43;9.63;;;11.00;99.90;;;;;;10314210;28;20717;-68
2023/03/21 20:06:23;;;;;;;10.50;8.30;;;11.10;99.90;;;;;;10321810;28;20226;-69
2023/03/21 20:11:24;;;;;;;13.63;10.00;;;11.10;99.90;;;;;;10321346;28;20226;-70
2023/03/21 20:16:24;;;;;;;12.10;9.27;;;11.00;99.90;;;;;;10326278;28;20230;-68
2023/03/21 20:21:26;;;;;;;10.03;8.77;;;10.90;99.90;;;;;;10331186;28;20226;-68
2023/03/21 20:26:27;;;;;;;10.40;8.77;;;11.00;99.90;;;;;;10325604;28;20244;-66
2023/03/21 20:31:27;;;;;;;13.23;9.43;;;10.90;99.90;;;;;;10328573;28;20700;-69
2023/03/21 20:36:29;;;;;;;10.20;8.17;;;10.80;99.90;;;;;;10325941;28;20324;-67
2023/03/21 20:41:29;;;;;;;9.93;8.40;;;10.90;99.90;;;;;;10330047;28;20313;-69
2023/03/21 20:46:30;;;;;;;9.43;7.90;;;10.90;99.90;;;;;;10317091;28;20959;-70
2023/03/21 20:51:31;;;;;;;9.60;7.07;;;11.00;99.90;;;;;;10311473;28;20222;-70
2023/03/21 20:56:31;;;;;;;8.70;7.27;;;11.10;99.90;;;;;;10331309;28;20233;-68
2023/03/21 21:01:32;;;;;;;9.57;6.53;;;11.20;99.90;;;;;;10320435;28;20222;-68
2023/03/21 21:06:32;;;;;;;9.80;7.03;;;11.20;99.90;;;;;;10329968;28;21037;-68
2023/03/21 21:11:33;;;;;;;7.60;6.80;;;11.20;99.90;;;;;;10329943;28;20619;-68
2023/03/21 21:16:34;;;;;;;8.53;6.10;;;11.20;99.90;;;;;;10329651;28;20221;-69
2023/03/21 21:21:35;;;;;;;10.23;6.67;;;11.30;99.90;;;;;;10328667;28;20218;-69
2023/03/21 21:26:35;;;;;;;7.10;5.40;;;11.30;99.90;;;;;;10324327;28;20222;-68
2023/03/21 21:31:36;;;;;;;8.13;6.20;;;11.30;99.90;;;;;;10328153;28;20708;-68
2023/03/21 21:36:36;;;;;;;8.17;6.13;;;11.40;99.90;;;;;;10311687;28;20272;-68
2023/03/21 21:41:38;;;;;;;7.43;5.93;;;11.40;99.90;;;;;;10320312;28;20232;-67
2023/03/21 21:46:38;;;;;;;7.00;5.87;;;11.50;99.90;;;;;;10313488;28;20249;-68
2023/03/21 21:51:40;;;;;;;6.23;5.60;;;11.50;99.90;;;;;;10313140;28;20789;-67
2023/03/21 21:56:41;;;;;;;7.43;5.90;;;11.50;99.90;;;;;;10312369;28;20272;-69
2023/03/21 22:01:41;;;;;;;5.77;5.17;;;11.60;99.90;;;;;;10311234;28;20318;-67
2023/03/21 22:06:42;;;;;;;7.03;5.70;;;11.60;99.90;;;;;;10304396;28;20621;-68
2023/03/21 22:11:43;;;;;;;8.10;5.63;;;11.60;99.90;;;;;;10320114;28;20276;-69
2023/03/21 22:16:45;;;;;;;7.83;6.30;;;11.60;99.90;;;;;;10310934;28;20294;-67
2023/03/21 22:21:46;;;;;;;8.13;5.93;;;11.60;99.90;;;;;;10309232;28;20248;-66
2023/03/21 22:26:46;;;;;;;10.17;6.60;;;11.60;99.90;;;;;;10312057;28;20232;-67
2023/03/21 22:31:47;;;;;;;6.57;5.80;;;11.50;99.90;;;;;;10315133;28;20421;-69
2023/03/21 22:36:49;;;;;;;7.67;5.67;;;11.40;99.90;;;;;;10315993;28;20623;-69
2023/03/21 22:41:49;;;;;;;8.00;5.83;;;11.30;99.90;;;;;;10304167;28;20294;-66
2023/03/21 22:46:50;;;;;;;6.83;5.20;;;11.30;99.90;;;;;;10314132;28;20252;-68
2023/03/21 22:51:50;;;;;;;5.97;4.90;;;11.20;99.90;;;;;;10311135;28;20222;-67
2023/03/21 22:56:51;;;;;;;6.37;4.93;;;11.20;99.90;;;;;;10321063;28;20701;-67
2023/03/21 23:01:52;;;;;;;5.77;4.63;;;11.10;99.90;;;;;;10318333;28;20615;-67
2023/03/21 23:06:53;;;;;;;5.60;4.73;;;11.00;99.90;;;;;;10304254;28;20230;-66
2023/03/21 23:11:58;;;;;;;6.50;4.67;;;10.90;99.90;;;;;;10311024;28;20238;-68
2023/03/21 23:16:59;;;;;;;5.40;4.60;;;10.90;99.90;;;;;;10316328;28;20241;-67
2023/03/21 23:22:00;;;;;;;5.47;4.10;;;10.80;99.90;;;;;;10305866;28;20277;-67
2023/03/21 23:27:01;;;;;;;7.77;4.73;;;10.70;99.90;;;;;;10314365;28;20226;-68
2023/03/21 23:32:01;;;;;;;6.07;4.63;;;10.70;99.90;;;;;;10315368;28;20663;-67
2023/03/21 23:37:02;;;;;;;5.83;4.77;;;10.70;99.90;;;;;;10309488;28;20233;-66
2023/03/21 23:42:02;;;;;;;5.93;4.47;;;10.60;99.90;;;;;;10310903;28;20249;-67
2023/03/21 23:47:03;;;;;;;7.37;4.13;;;10.70;99.90;;;;;;10317776;28;20241;-67
2023/03/21 23:52:04;;;;;;;8.20;4.50;;;10.90;99.90;;;;;;10340595;28;20341;-67
2023/03/21 23:57:05;;;;;;;6.80;4.30;;;11.00;99.90;;;;;;10312068;28;20261;-67
